ボストン の空港の天気 - METARとTAF

ジェネラル・エドワード・ローレンス・ローガン国際空港 ( KBOS / BOS ) - アメリカ マサチューセッツ州ボストン
飛行場実況気象(Metar)
観測時間08/17 07:31 EDT (08/17 11:31 UTC)
風向・風速東南東 4m/s
視程800m
天気現象もや
全天を覆う雲 鉛直視程 90m
気温19.4℃
湿度90%
気圧1018hPa
METARKBOS 171131Z 12008KT 1/2SM R04R/1600V2000FT BR VV003 19/18 A3007 RMK AO2 SFC VIS 3/4 T01940178
過去の天気等 Google飛行場航空写真 Wunderground天気予報

過去48時間のMETAR

飛行場予報(TAF)
発表時間: 8/17 07:30 EDT (8/17 11:30 UTC)
予報対象時間: 17日8時 EDT ~ 18日14時 EDT
風向・風速東南東 4m/s
視程1210m
天気現象もや
全天を覆う雲 鉛直視程 120m
17日9時 EDT から
風向・風速東南東 3m/s
視程10km以上
全天の8割程度の雲 雲底高度 610m
18日0時 EDT から
風向・風速東 2m/s
視程3220m
天気現象もや
全天の8割程度の雲 雲底高度 1370m
18日3時 EDT から
風向・風速静穏
視程8050m
天気現象もや
全天の8割程度の雲 雲底高度 400m
18日7時 EDT から
風向・風速南東 2m/s
視程6440m
天気現象もや
全天の8割程度の雲 雲底高度 1070m
18日12時 EDT から
風向・風速東 2m/s
視程10km以上
天気現象周辺でしゅう雨
全天の8割程度の雲 雲底高度 2440m
KBOS 171130Z 1712/1818 11008KT 3/4SM BR VV004
FM171330 11006KT P6SM BKN020
FM180400 10003KT 2SM BR BKN045
FM180700 00000KT 5SM BR BKN013
FM181100 14003KT 4SM BR BKN035
FM181600 10004KT P6SM VCSH BKN080